createdAt,value
2022-10-15T00:01:11.868Z,35.10
2022-10-15T00:03:41.187Z,35.23
2022-10-15T00:06:11.158Z,33.70
2022-10-15T00:08:38.947Z,34.67
2022-10-15T00:11:09.868Z,33.83
2022-10-15T00:13:37.883Z,36.73
2022-10-15T00:16:07.587Z,34.20
2022-10-15T00:18:35.479Z,37.00
2022-10-15T00:21:05.130Z,37.27
2022-10-15T00:23:32.194Z,34.23
2022-10-15T00:26:04.181Z,36.50
2022-10-15T00:28:33.537Z,33.17
2022-10-15T00:31:12.727Z,35.77
2022-10-15T00:33:41.237Z,33.17
2022-10-15T00:36:16.629Z,33.97
2022-10-15T00:38:43.741Z,36.40
2022-10-15T00:41:25.756Z,34.87
2022-10-15T00:43:55.533Z,33.87
2022-10-15T00:46:31.516Z,33.73
2022-10-15T00:49:24.030Z,34.17
2022-10-15T00:52:05.799Z,34.20
2022-10-15T00:54:40.782Z,34.57
2022-10-15T00:57:08.888Z,34.73
2022-10-15T00:59:41.025Z,35.80
2022-10-15T01:02:08.509Z,35.07
2022-10-15T01:04:36.749Z,36.57
2022-10-15T01:07:04.003Z,36.20
2022-10-15T01:09:31.110Z,37.30
2022-10-15T01:11:58.184Z,37.03
2022-10-15T01:14:48.469Z,37.87
2022-10-15T01:17:43.443Z,38.37
2022-10-15T01:20:16.712Z,38.83
2022-10-15T01:23:05.177Z,38.60
2022-10-15T01:26:09.766Z,36.93
2022-10-15T01:29:01.749Z,37.97
2022-10-15T01:31:40.281Z,36.83
2022-10-15T01:35:04.665Z,36.93
2022-10-15T01:37:31.639Z,36.20
2022-10-15T01:40:23.708Z,36.17
2022-10-15T01:43:00.885Z,34.77
2022-10-15T01:45:41.797Z,37.33
2022-10-15T01:48:12.907Z,37.17
2022-10-15T01:50:47.505Z,35.33
2022-10-15T01:53:17.746Z,35.47
2022-10-15T01:55:46.491Z,36.30
2022-10-15T01:58:16.736Z,36.83
2022-10-15T02:00:45.202Z,36.40
2022-10-15T02:03:12.372Z,36.93
2022-10-15T02:05:48.013Z,35.50
2022-10-15T02:08:53.110Z,35.33
2022-10-15T02:11:20.350Z,36.33
2022-10-15T02:14:05.748Z,35.07
2022-10-15T02:16:48.081Z,33.37
2022-10-15T02:19:31.296Z,35.40
2022-10-15T02:22:13.752Z,33.83
2022-10-15T02:24:58.216Z,35.77
2022-10-15T02:27:28.272Z,34.33
2022-10-15T02:29:57.654Z,37.03
2022-10-15T02:32:26.319Z,36.30
2022-10-15T02:34:54.695Z,34.93
2022-10-15T02:37:24.458Z,35.03
2022-10-15T02:39:51.790Z,34.97
2022-10-15T02:42:21.354Z,36.57
2022-10-15T02:44:48.989Z,33.70
2022-10-15T02:47:16.113Z,35.73
2022-10-15T02:49:43.475Z,35.20
2022-10-15T02:52:10.440Z,35.73
2022-10-15T02:54:37.522Z,33.90
2022-10-15T02:57:04.370Z,34.70
2022-10-15T02:59:31.213Z,35.20
2022-10-15T03:01:58.063Z,34.40
2022-10-15T03:04:25.220Z,32.93
2022-10-15T03:06:52.244Z,32.70
2022-10-15T03:09:19.339Z,33.13
2022-10-15T03:11:46.403Z,32.67
2022-10-15T03:14:13.609Z,33.63
2022-10-15T03:16:40.742Z,33.50
2022-10-15T03:19:07.813Z,33.50
2022-10-15T03:21:35.901Z,33.87
2022-10-15T03:24:03.395Z,33.13
2022-10-15T03:26:30.539Z,32.80
2022-10-15T03:28:57.700Z,35.40
2022-10-15T03:31:24.859Z,33.13
2022-10-15T03:33:51.962Z,34.23
2022-10-15T03:36:19.173Z,33.47
2022-10-15T03:38:46.224Z,34.83
2022-10-15T03:41:13.076Z,34.13
2022-10-15T03:43:42.639Z,33.77
2022-10-15T03:46:11.164Z,33.93
2022-10-15T03:48:38.716Z,32.43
2022-10-15T03:51:05.847Z,31.67
2022-10-15T03:53:32.869Z,33.40
2022-10-15T03:56:07.154Z,33.50
2022-10-15T03:58:34.374Z,32.60
2022-10-15T04:01:01.455Z,31.77
2022-10-15T04:03:28.576Z,31.40
2022-10-15T04:05:56.745Z,32.63
2022-10-15T04:08:25.559Z,32.57
2022-10-15T04:10:52.584Z,30.13
2022-10-15T04:13:19.675Z,34.37
2022-10-15T04:15:46.790Z,30.97
2022-10-15T04:18:14.320Z,32.13
2022-10-15T04:20:42.741Z,31.40
2022-10-15T04:23:10.397Z,32.00
2022-10-15T04:25:37.811Z,30.60
2022-10-15T04:28:05.178Z,29.37
2022-10-15T04:30:32.375Z,31.37
2022-10-15T04:32:59.236Z,30.13
2022-10-15T04:35:26.458Z,31.77
2022-10-15T04:37:53.559Z,29.70
2022-10-15T04:40:20.793Z,30.17
2022-10-15T04:42:47.835Z,29.13
2022-10-15T04:45:15.035Z,30.23
2022-10-15T04:47:42.998Z,29.73
2022-10-15T04:50:09.991Z,28.43
2022-10-15T04:52:37.141Z,28.73
2022-10-15T04:55:04.939Z,29.23
2022-10-15T04:57:32.350Z,29.80
2022-10-15T04:59:59.331Z,30.17
2022-10-15T05:02:26.356Z,27.53
2022-10-15T05:04:53.309Z,27.43
2022-10-15T05:07:20.216Z,28.63
2022-10-15T05:09:47.316Z,28.37
2022-10-15T05:12:14.156Z,29.00
2022-10-15T05:14:41.961Z,26.30
2022-10-15T05:17:09.076Z,29.27
2022-10-15T05:19:36.026Z,28.83
2022-10-15T05:22:03.103Z,29.23
2022-10-15T05:24:30.253Z,27.80
2022-10-15T05:26:57.387Z,28.47
2022-10-15T05:29:24.263Z,28.60
2022-10-15T05:31:52.739Z,27.53
2022-10-15T05:34:19.808Z,28.77
2022-10-15T05:36:46.895Z,28.13
2022-10-15T05:39:14.742Z,28.67
2022-10-15T05:41:41.865Z,26.20
2022-10-15T05:44:08.759Z,28.40
2022-10-15T05:46:35.924Z,27.07
2022-10-15T05:49:03.073Z,27.17
2022-10-15T05:51:30.134Z,27.23
2022-10-15T05:53:58.318Z,27.80
2022-10-15T05:56:26.408Z,26.43
2022-10-15T05:58:53.451Z,25.43
2022-10-15T06:01:20.578Z,27.67
2022-10-15T06:03:47.696Z,25.80
2022-10-15T06:06:22.160Z,25.83
2022-10-15T06:08:50.179Z,25.53
2022-10-15T06:11:18.073Z,25.40
2022-10-15T06:13:46.020Z,26.60
2022-10-15T06:16:16.646Z,27.27
2022-10-15T06:18:46.671Z,28.10
2022-10-15T06:21:14.029Z,33.50
2022-10-15T06:23:41.166Z,32.10
2022-10-15T06:26:10.029Z,33.83
2022-10-15T06:28:38.536Z,35.60
2022-10-15T06:31:06.295Z,30.53
2022-10-15T06:33:33.671Z,28.27
2022-10-15T06:36:09.259Z,27.23
2022-10-15T06:38:36.905Z,27.60
2022-10-15T06:41:07.984Z,26.90
2022-10-15T06:43:35.751Z,25.87
2022-10-15T06:46:04.183Z,26.13
2022-10-15T06:48:31.379Z,24.27
2022-10-15T06:51:02.047Z,24.30
2022-10-15T06:53:31.202Z,24.23
2022-10-15T06:56:03.420Z,23.77
2022-10-15T06:58:30.706Z,22.97
2022-10-15T07:01:02.758Z,21.93
2022-10-15T07:03:30.110Z,21.43
2022-10-15T07:05:56.999Z,22.27
2022-10-15T07:08:25.417Z,20.88
2022-10-15T07:10:52.501Z,22.30
2022-10-15T07:13:19.348Z,20.88
2022-10-15T07:15:47.339Z,21.13
2022-10-15T07:18:14.342Z,19.17
2022-10-15T07:20:41.441Z,20.80
2022-10-15T07:23:08.547Z,22.03
2022-10-15T07:25:35.882Z,20.80
2022-10-15T07:28:03.009Z,20.48
2022-10-15T07:30:30.067Z,19.23
2022-10-15T07:32:58.388Z,20.40
2022-10-15T07:35:28.242Z,18.63
2022-10-15T07:37:55.539Z,20.13
2022-10-15T07:40:22.714Z,20.20
2022-10-15T07:42:57.291Z,20.33
2022-10-15T07:45:25.689Z,18.92
2022-10-15T07:47:53.304Z,19.90
2022-10-15T07:50:20.513Z,18.90
2022-10-15T07:52:47.772Z,19.13
2022-10-15T07:55:14.865Z,19.17
2022-10-15T07:57:42.801Z,19.60
2022-10-15T08:00:10.470Z,19.88
2022-10-15T08:02:37.381Z,18.30
2022-10-15T08:05:04.751Z,18.75
2022-10-15T08:07:31.648Z,19.70
2022-10-15T08:09:58.524Z,18.27
2022-10-15T08:12:26.065Z,18.50
2022-10-15T08:14:53.501Z,18.63
2022-10-15T08:17:20.364Z,20.33
2022-10-15T08:19:47.422Z,18.33
2022-10-15T08:22:14.578Z,18.20
2022-10-15T08:24:41.669Z,19.15
2022-10-15T08:27:08.562Z,18.38
2022-10-15T08:29:35.708Z,18.13
2022-10-15T08:32:02.992Z,19.13
2022-10-15T08:34:30.008Z,17.27
2022-10-15T08:36:57.147Z,17.40
2022-10-15T08:39:24.025Z,16.48
2022-10-15T08:42:16.416Z,16.58
2022-10-15T08:44:51.590Z,17.20
2022-10-15T08:47:36.607Z,16.60
2022-10-15T08:50:26.359Z,16.73
2022-10-15T08:52:54.163Z,16.77
2022-10-15T08:58:00.603Z,15.88
2022-10-15T09:00:43.784Z,16.40
2022-10-15T09:03:38.045Z,16.23
2022-10-15T09:06:24.081Z,17.02
2022-10-15T09:09:28.593Z,16.63
2022-10-15T09:12:17.244Z,16.13
2022-10-15T09:14:46.357Z,15.38
2022-10-15T09:17:25.973Z,15.85
2022-10-15T09:19:55.583Z,15.25
2022-10-15T09:22:26.225Z,17.70
2022-10-15T09:24:53.915Z,17.02
2022-10-15T09:27:31.439Z,16.77
2022-10-15T09:30:07.446Z,16.10
2022-10-15T09:32:52.046Z,16.08
2022-10-15T09:35:24.518Z,17.30
2022-10-15T09:38:14.195Z,16.85
2022-10-15T09:40:58.957Z,16.52
2022-10-15T09:43:34.981Z,15.70
2022-10-15T09:46:05.913Z,14.82
2022-10-15T09:48:40.195Z,16.77
2022-10-15T09:51:27.227Z,15.90
2022-10-15T09:54:22.358Z,15.38
2022-10-15T09:56:54.547Z,14.13
2022-10-15T09:59:23.344Z,17.30
2022-10-15T10:02:02.089Z,16.00
2022-10-15T10:04:31.659Z,15.93
2022-10-15T10:07:04.947Z,16.55
2022-10-15T10:09:38.861Z,16.27
2022-10-15T10:12:08.838Z,15.30
2022-10-15T10:14:36.911Z,14.95
2022-10-15T10:17:25.141Z,17.30
2022-10-15T10:20:13.393Z,16.90
2022-10-15T10:22:55.084Z,16.15
2022-10-15T10:25:32.323Z,15.75
2022-10-15T10:28:20.751Z,14.65
2022-10-15T10:30:56.999Z,14.55
2022-10-15T10:33:37.961Z,12.73
2022-10-15T10:36:07.748Z,14.88
2022-10-15T10:38:40.914Z,15.10
2022-10-15T10:41:12.071Z,13.60
2022-10-15T10:43:41.546Z,13.20
2022-10-15T10:46:14.908Z,14.90
2022-10-15T10:48:43.417Z,13.25
2022-10-15T10:51:19.353Z,14.40
2022-10-15T10:54:00.400Z,14.48
2022-10-15T10:56:45.804Z,16.20
2022-10-15T10:59:18.549Z,13.73
2022-10-15T11:01:46.107Z,14.38
2022-10-15T11:04:19.656Z,17.08
2022-10-15T11:07:06.808Z,15.40
2022-10-15T11:09:52.251Z,15.45
2022-10-15T11:12:48.210Z,14.43
2022-10-15T11:15:37.118Z,15.68
2022-10-15T11:18:41.376Z,14.55
2022-10-15T11:21:20.775Z,12.43
2022-10-15T11:24:17.221Z,14.15
2022-10-15T11:26:59.409Z,13.63
2022-10-15T11:29:41.985Z,13.60
2022-10-15T11:33:01.831Z,14.90
2022-10-15T11:35:52.350Z,13.60
2022-10-15T11:38:43.598Z,13.95
2022-10-15T11:41:36.456Z,14.30
2022-10-15T11:44:23.008Z,12.73
2022-10-15T11:47:20.472Z,14.25
2022-10-15T11:49:57.251Z,14.75
2022-10-15T11:52:48.418Z,14.10
2022-10-15T11:55:22.787Z,14.48
2022-10-15T11:57:54.035Z,15.55
2022-10-15T12:00:32.975Z,15.20
2022-10-15T12:03:22.453Z,13.95
2022-10-15T12:05:56.975Z,14.85
2022-10-15T12:08:30.117Z,13.10
2022-10-15T12:11:03.336Z,14.88
2022-10-15T12:14:00.656Z,14.02
2022-10-15T12:16:43.802Z,14.90
2022-10-15T12:19:20.170Z,14.10
2022-10-15T12:21:55.876Z,15.73
2022-10-15T12:24:37.948Z,15.68
2022-10-15T12:27:34.531Z,14.23
2022-10-15T12:30:04.181Z,14.60
2022-10-15T12:32:38.278Z,14.45
2022-10-15T12:35:18.015Z,14.18
2022-10-15T12:37:48.030Z,14.50
2022-10-15T12:40:24.183Z,13.90
2022-10-15T12:42:55.452Z,13.70
2022-10-15T12:45:40.674Z,13.73
2022-10-15T12:48:20.911Z,14.07
2022-10-15T12:50:48.040Z,13.63
2022-10-15T12:53:32.556Z,14.23
2022-10-15T12:56:24.331Z,15.20
2022-10-15T12:58:56.166Z,14.32
2022-10-15T13:01:23.109Z,15.13
2022-10-15T13:03:52.866Z,13.07
2022-10-15T13:06:22.979Z,14.18
2022-10-15T13:09:00.006Z,15.55
2022-10-15T13:11:33.158Z,12.93
2022-10-15T13:14:09.472Z,15.25
2022-10-15T13:16:36.827Z,15.05
2022-10-15T13:19:04.615Z,13.95
2022-10-15T13:21:58.856Z,14.32
2022-10-15T13:24:28.306Z,14.68
2022-10-15T13:26:57.032Z,15.27
2022-10-15T13:29:26.190Z,14.38
2022-10-15T13:31:56.836Z,14.95
2022-10-15T13:34:32.869Z,13.27
2022-10-15T13:37:02.133Z,14.73
2022-10-15T13:39:40.005Z,12.73
2022-10-15T13:42:18.650Z,15.15
2022-10-15T13:44:58.112Z,14.77
2022-10-15T13:47:35.276Z,13.70
2022-10-15T13:50:19.278Z,14.43
2022-10-15T13:53:04.676Z,14.23
2022-10-15T13:55:39.223Z,13.80
2022-10-15T13:58:15.427Z,14.45
2022-10-15T14:00:42.675Z,19.63
2022-10-15T14:03:18.970Z,17.25
2022-10-15T14:05:47.551Z,19.17
2022-10-15T14:08:22.224Z,16.38
2022-10-15T14:10:50.969Z,21.13
2022-10-15T14:13:18.386Z,20.85
2022-10-15T14:18:37.474Z,19.35
2022-10-15T14:21:14.227Z,19.33
2022-10-15T14:23:43.077Z,17.25
2022-10-15T14:26:10.926Z,15.68
2022-10-15T14:28:38.626Z,15.05
2022-10-15T14:31:06.226Z,18.67
2022-10-15T14:33:42.259Z,16.50
2022-10-15T14:36:14.022Z,20.85
2022-10-15T14:38:42.253Z,19.33
2022-10-15T14:41:31.535Z,20.20
2022-10-15T14:44:13.027Z,17.13
2022-10-15T14:46:51.884Z,23.08
2022-10-15T14:49:20.723Z,19.00
2022-10-15T14:52:14.919Z,16.58
2022-10-15T14:54:46.713Z,16.80
2022-10-15T14:57:38.149Z,15.38
2022-10-15T15:00:14.301Z,17.63
2022-10-15T15:02:41.337Z,16.77
2022-10-15T15:05:14.141Z,16.90
2022-10-15T15:07:41.237Z,18.75
2022-10-15T15:10:09.588Z,24.45
2022-10-15T15:12:39.195Z,29.00
2022-10-15T15:15:20.589Z,30.50
2022-10-15T15:17:48.661Z,25.70
2022-10-15T15:20:17.112Z,20.27
2022-10-15T15:22:44.096Z,20.73
2022-10-15T15:25:24.678Z,17.90
2022-10-15T15:27:51.517Z,17.02
2022-10-15T15:30:21.008Z,19.13
2022-10-15T15:32:48.553Z,17.85
2022-10-15T15:35:21.994Z,18.25
2022-10-15T15:37:48.856Z,18.00
2022-10-15T15:40:15.763Z,16.85
2022-10-15T15:42:43.998Z,16.27
2022-10-15T15:45:31.105Z,18.60
2022-10-15T15:48:02.093Z,17.27
2022-10-15T15:50:29.009Z,17.75
2022-10-15T15:52:55.873Z,18.08
2022-10-15T15:55:23.270Z,18.33
2022-10-15T15:57:50.167Z,23.08
2022-10-15T16:00:17.412Z,24.83
2022-10-15T16:02:44.405Z,24.42
2022-10-15T16:05:14.901Z,21.00
2022-10-15T16:07:42.436Z,20.98
2022-10-15T16:10:12.607Z,20.35
2022-10-15T16:12:40.098Z,21.95
2022-10-15T16:15:11.534Z,22.17
2022-10-15T16:17:41.306Z,22.40
2022-10-15T16:20:08.878Z,19.70
2022-10-15T16:22:35.703Z,21.50
2022-10-15T16:25:02.518Z,22.10
2022-10-15T16:27:29.439Z,22.48
2022-10-15T16:29:56.243Z,21.77
2022-10-15T16:32:23.064Z,23.15
2022-10-15T16:34:51.214Z,21.02
2022-10-15T16:37:18.063Z,20.02
2022-10-15T16:39:44.905Z,19.95
2022-10-15T16:42:13.823Z,21.13
2022-10-15T16:44:40.705Z,22.25
2022-10-15T16:47:07.574Z,20.63
2022-10-15T16:49:34.406Z,21.38
2022-10-15T16:52:01.229Z,20.23
2022-10-15T16:54:28.136Z,20.80
2022-10-15T16:56:54.994Z,19.90
2022-10-15T16:59:21.811Z,20.42
2022-10-15T17:01:48.693Z,19.20
2022-10-15T17:04:15.587Z,20.25
2022-10-15T17:06:42.432Z,20.42
2022-10-15T17:09:09.382Z,18.98
2022-10-15T17:11:39.683Z,19.52
2022-10-15T17:14:09.801Z,18.30
2022-10-15T17:16:45.285Z,18.52
2022-10-15T17:19:13.293Z,19.25
2022-10-15T17:21:42.402Z,18.70
2022-10-15T17:24:12.765Z,20.70
2022-10-15T17:26:40.803Z,21.35
2022-10-15T17:29:16.253Z,20.40
2022-10-15T17:31:43.175Z,20.45
2022-10-15T17:34:11.772Z,20.15
2022-10-15T17:36:45.014Z,19.48
2022-10-15T17:39:13.578Z,19.48
2022-10-15T17:41:41.124Z,19.77
2022-10-15T17:44:08.330Z,19.15
2022-10-15T17:46:35.225Z,19.27
2022-10-15T17:49:03.416Z,19.73
2022-10-15T17:51:32.384Z,18.67
2022-10-15T17:54:00.364Z,18.67
2022-10-15T17:56:27.833Z,17.63
2022-10-15T17:58:54.715Z,17.27
2022-10-15T18:01:56.195Z,18.35
2022-10-15T18:04:17.332Z,17.40
2022-10-15T18:06:45.449Z,18.17
2022-10-15T18:09:12.437Z,18.00
2022-10-15T18:11:39.349Z,18.80
2022-10-15T18:14:06.261Z,20.48
2022-10-15T18:16:33.207Z,17.85
2022-10-15T18:19:00.138Z,16.50
2022-10-15T18:21:28.490Z,18.40
2022-10-15T18:23:58.748Z,16.23
2022-10-15T18:26:25.577Z,19.85
2022-10-15T18:28:54.166Z,21.85
2022-10-15T18:31:22.170Z,22.20
2022-10-15T18:33:52.071Z,19.77
2022-10-15T18:36:23.398Z,18.55
2022-10-15T18:38:50.580Z,18.60
2022-10-15T18:41:23.254Z,18.70
2022-10-15T18:43:51.612Z,17.25
2022-10-15T18:46:19.042Z,20.60
2022-10-15T18:48:46.157Z,19.08
2022-10-15T18:51:13.018Z,17.20
2022-10-15T18:53:40.149Z,16.17
2022-10-15T18:56:08.352Z,17.17
2022-10-15T18:58:36.547Z,18.63
2022-10-15T19:01:36.454Z,16.85
2022-10-15T19:04:09.592Z,16.92
2022-10-15T19:06:42.350Z,16.08
2022-10-15T19:09:12.192Z,16.23
2022-10-15T19:11:40.578Z,15.95
2022-10-15T19:14:07.922Z,13.98
2022-10-15T19:16:35.511Z,15.18
2022-10-15T19:19:03.748Z,14.38
2022-10-15T19:21:31.715Z,15.68
2022-10-15T19:23:59.705Z,16.35
2022-10-15T19:26:27.761Z,15.77
2022-10-15T19:28:54.836Z,13.38
2022-10-15T19:31:30.406Z,13.88
2022-10-15T19:33:58.240Z,13.77
2022-10-15T19:36:31.906Z,13.55
2022-10-15T19:39:02.244Z,12.07
2022-10-15T19:41:29.223Z,13.32
2022-10-15T19:43:56.242Z,12.88
2022-10-15T19:46:23.069Z,13.85
2022-10-15T19:48:49.943Z,14.98
2022-10-15T19:51:16.857Z,15.70
2022-10-15T19:53:43.723Z,16.77
2022-10-15T19:56:11.204Z,15.93
2022-10-15T19:58:38.365Z,16.35
2022-10-15T20:01:05.760Z,16.80
2022-10-15T20:06:02.805Z,16.83
2022-10-15T20:08:31.551Z,17.55
2022-10-15T20:10:58.397Z,17.33
2022-10-15T20:13:25.574Z,17.95
2022-10-15T20:15:54.703Z,16.08
2022-10-15T20:18:22.477Z,18.40
2022-10-15T20:20:49.814Z,17.70
2022-10-15T20:23:17.542Z,18.15
2022-10-15T20:25:45.653Z,17.38
2022-10-15T20:28:14.823Z,17.10
2022-10-15T20:30:42.345Z,18.80
2022-10-15T20:33:10.837Z,17.40
2022-10-15T20:35:39.542Z,16.48
2022-10-15T20:38:07.657Z,15.75
2022-10-15T20:40:38.759Z,15.55
2022-10-15T20:43:05.813Z,16.58
2022-10-15T20:45:42.581Z,16.92
2022-10-15T20:48:18.555Z,17.00
2022-10-15T20:50:47.086Z,17.17
2022-10-15T20:53:14.353Z,15.65
2022-10-15T20:55:41.753Z,15.52
2022-10-15T20:58:09.641Z,13.82
2022-10-15T21:00:36.906Z,15.70
2022-10-15T21:03:04.061Z,15.07
2022-10-15T21:05:31.210Z,15.25
2022-10-15T21:07:59.278Z,14.32
2022-10-15T21:10:26.801Z,13.50
2022-10-15T21:12:53.822Z,13.57
2022-10-15T21:15:20.759Z,12.93
2022-10-15T21:17:47.889Z,13.43
2022-10-15T21:20:15.370Z,12.40
2022-10-15T21:22:42.425Z,14.02
2022-10-15T21:25:09.753Z,13.38
2022-10-15T21:27:36.769Z,13.18
2022-10-15T21:30:04.283Z,12.95
2022-10-15T21:32:32.756Z,12.60
2022-10-15T21:35:00.067Z,12.85
2022-10-15T21:37:27.634Z,13.10
2022-10-15T21:39:54.957Z,11.82
2022-10-15T21:42:21.777Z,13.15
2022-10-15T21:44:48.622Z,12.68
2022-10-15T21:47:15.551Z,12.40
2022-10-15T21:49:42.705Z,13.00
2022-10-15T21:52:09.546Z,11.45
2022-10-15T21:54:36.530Z,11.20
2022-10-15T21:57:03.636Z,11.43
2022-10-15T21:59:30.713Z,9.93
2022-10-15T22:01:57.659Z,10.55
2022-10-15T22:04:24.887Z,9.98
2022-10-15T22:06:51.870Z,12.05
2022-10-15T22:09:18.774Z,10.13
2022-10-15T22:11:45.891Z,12.77
2022-10-15T22:14:13.987Z,10.40
2022-10-15T22:16:42.206Z,10.10
2022-10-15T22:19:13.468Z,10.10
2022-10-15T22:21:40.580Z,8.77
2022-10-15T22:24:13.649Z,8.60
2022-10-15T22:26:44.373Z,8.77
2022-10-15T22:29:26.248Z,8.88
2022-10-15T22:31:54.248Z,8.48
2022-10-15T22:34:24.156Z,8.85
2022-10-15T22:36:51.560Z,7.95
2022-10-15T22:39:19.227Z,7.13
2022-10-15T22:41:47.917Z,7.57
2022-10-15T22:44:18.363Z,7.90
2022-10-15T22:46:46.352Z,8.20
2022-10-15T22:49:14.309Z,8.05
2022-10-15T22:51:41.761Z,9.65
2022-10-15T22:54:08.692Z,8.60
2022-10-15T22:56:36.976Z,9.18
2022-10-15T22:59:04.685Z,8.38
2022-10-15T23:01:33.034Z,8.70
2022-10-15T23:04:03.485Z,8.32
2022-10-15T23:06:32.401Z,7.75
2022-10-15T23:09:00.135Z,9.50
2022-10-15T23:11:37.718Z,8.77
2022-10-15T23:14:09.836Z,9.52
2022-10-15T23:16:39.143Z,8.50
2022-10-15T23:19:11.693Z,9.32
2022-10-15T23:21:43.095Z,10.05
2022-10-15T23:24:10.473Z,8.52
2022-10-15T23:26:39.550Z,8.93
2022-10-15T23:29:08.516Z,9.40
2022-10-15T23:31:36.695Z,8.85
2022-10-15T23:34:05.523Z,9.00
2022-10-15T23:36:33.965Z,8.18
2022-10-15T23:39:03.935Z,10.10
2022-10-15T23:41:31.444Z,8.80
2022-10-15T23:43:58.522Z,8.90
2022-10-15T23:46:25.710Z,10.05
2022-10-15T23:48:52.654Z,9.27
2022-10-15T23:51:24.776Z,9.30
2022-10-15T23:53:53.045Z,8.85
2022-10-15T23:56:20.701Z,9.27
2022-10-15T23:58:49.693Z,9.27
